createdAt,value
2018-05-11T00:01:21.063Z,18.17
2018-05-11T00:06:23.515Z,18.70
2018-05-11T00:11:25.968Z,18.77
2018-05-11T00:16:28.445Z,18.70
2018-05-11T00:21:30.937Z,21.03
2018-05-11T00:26:33.401Z,22.30
2018-05-11T00:31:36.623Z,23.33
2018-05-11T00:36:39.961Z,20.97
2018-05-11T00:41:42.409Z,21.10
2018-05-11T00:46:53.050Z,19.60
2018-05-11T00:51:55.498Z,17.47
2018-05-11T00:56:58.718Z,17.33
2018-05-11T01:02:01.955Z,18.63
2018-05-11T01:07:04.449Z,18.53
2018-05-11T01:12:06.900Z,19.73
2018-05-11T01:17:09.349Z,20.07
2018-05-11T01:22:11.802Z,20.50
2018-05-11T01:27:15.033Z,21.23
2018-05-11T01:32:17.487Z,21.10
2018-05-11T01:37:19.954Z,22.30
2018-05-11T01:42:22.410Z,20.03
2018-05-11T01:47:24.873Z,21.63
2018-05-11T01:52:28.097Z,20.60
2018-05-11T01:57:30.544Z,18.07
2018-05-11T02:02:33.089Z,17.83
2018-05-11T02:07:35.558Z,17.27
2018-05-11T02:12:38.788Z,15.40
2018-05-11T02:17:42.012Z,16.23
2018-05-11T02:22:44.448Z,15.17
2018-05-11T02:27:46.910Z,17.37
2018-05-11T02:32:49.370Z,16.47
2018-05-11T02:37:52.600Z,18.50
2018-05-11T02:42:55.056Z,16.53
2018-05-11T02:47:57.508Z,17.90
2018-05-11T02:52:59.971Z,18.03
2018-05-11T02:58:02.431Z,18.60
2018-05-11T03:03:05.657Z,21.10
2018-05-11T03:08:08.889Z,20.30
2018-05-11T03:13:11.362Z,20.10
2018-05-11T03:18:31.127Z,25.40
2018-05-11T03:23:34.286Z,24.00
2018-05-11T03:28:36.838Z,22.60
2018-05-11T03:33:39.337Z,20.27
2018-05-11T03:38:57.717Z,20.53
2018-05-11T03:44:00.939Z,23.47
2018-05-11T03:49:07.498Z,23.37
2018-05-11T03:54:10.029Z,21.43
2018-05-11T03:59:15.015Z,22.20
2018-05-11T04:04:29.413Z,24.07
2018-05-11T04:09:31.849Z,22.80
2018-05-11T04:14:34.301Z,24.37
2018-05-11T04:19:36.769Z,23.13
2018-05-11T04:24:39.273Z,29.03
2018-05-11T04:29:41.717Z,27.67
2018-05-11T04:34:44.185Z,22.50
2018-05-11T04:39:47.405Z,22.30
2018-05-11T04:44:50.638Z,23.53
2018-05-11T04:49:53.083Z,23.37
2018-05-11T04:54:55.549Z,23.50
2018-05-11T04:59:58.005Z,23.97
2018-05-11T05:05:00.455Z,23.53
2018-05-11T05:10:03.000Z,24.27
2018-05-11T05:15:05.445Z,24.53
2018-05-11T05:20:07.979Z,25.00
2018-05-11T05:25:10.543Z,26.20
2018-05-11T05:30:13.753Z,24.67
2018-05-11T05:35:16.998Z,24.77
2018-05-11T05:40:19.452Z,27.17
2018-05-11T05:45:21.921Z,27.37
2018-05-11T05:50:24.478Z,26.73
2018-05-11T05:55:26.964Z,26.63
2018-05-11T06:00:29.475Z,25.97
2018-05-11T06:05:32.104Z,27.97
2018-05-11T06:10:34.559Z,27.33
2018-05-11T06:15:37.102Z,28.77
2018-05-11T06:20:39.566Z,27.67
2018-05-11T06:25:42.030Z,27.67
2018-05-11T06:30:44.473Z,27.37
2018-05-11T06:35:47.710Z,26.77
2018-05-11T06:40:51.063Z,28.13
2018-05-11T06:45:53.542Z,26.47
2018-05-11T06:50:56.092Z,25.70
2018-05-11T06:55:58.656Z,26.67
2018-05-11T07:01:01.084Z,26.37
2018-05-11T07:06:03.544Z,25.90
2018-05-11T07:11:05.999Z,25.80
2018-05-11T07:16:08.504Z,25.70
2018-05-11T07:21:11.080Z,25.53
2018-05-11T07:26:14.296Z,23.50
2018-05-11T07:31:16.842Z,21.73
2018-05-11T07:36:19.295Z,23.17
2018-05-11T07:41:22.596Z,22.87
2018-05-11T07:46:25.880Z,20.20
2018-05-11T07:51:28.348Z,21.13
2018-05-11T07:56:30.795Z,21.20
2018-05-11T08:01:33.244Z,21.37
2018-05-11T08:06:35.689Z,20.80
2018-05-11T08:11:38.147Z,19.60
2018-05-11T08:16:41.373Z,19.27
2018-05-11T08:21:44.592Z,19.37
2018-05-11T08:26:47.220Z,18.77
2018-05-11T08:31:49.504Z,19.17
2018-05-11T08:36:51.949Z,18.47
2018-05-11T08:41:55.179Z,18.97
2018-05-11T08:46:57.752Z,19.03
2018-05-11T08:52:01.110Z,19.87
2018-05-11T08:57:08.716Z,18.97
2018-05-11T09:02:12.035Z,19.37
2018-05-11T09:07:14.501Z,19.90
2018-05-11T09:12:17.102Z,18.00
2018-05-11T09:17:20.422Z,19.50
2018-05-11T09:22:23.977Z,18.87
2018-05-11T09:27:27.149Z,17.70
2018-05-11T09:32:30.042Z,18.00
2018-05-11T09:37:33.269Z,17.30
2018-05-11T09:42:35.838Z,17.70
2018-05-11T09:47:39.097Z,16.93
2018-05-11T09:52:41.537Z,18.07
2018-05-11T09:57:44.765Z,17.17
2018-05-11T10:02:47.313Z,17.27
2018-05-11T10:07:50.592Z,17.20
2018-05-11T10:12:53.014Z,16.20
2018-05-11T10:17:55.712Z,15.13
2018-05-11T10:22:58.290Z,15.77
2018-05-11T10:28:00.802Z,14.63
2018-05-11T10:33:03.243Z,15.77
2018-05-11T10:38:05.700Z,14.67
2018-05-11T10:43:08.641Z,11.80
2018-05-11T10:48:11.122Z,12.23
2018-05-11T10:53:13.656Z,12.80
2018-05-11T10:58:16.101Z,13.70
2018-05-11T11:03:21.671Z,11.87
2018-05-11T11:08:24.913Z,11.80
2018-05-11T11:13:27.382Z,13.27
2018-05-11T11:18:30.592Z,12.33
2018-05-11T11:23:33.039Z,11.77
2018-05-11T11:28:36.307Z,11.87
2018-05-11T11:33:38.757Z,11.13
2018-05-11T11:38:41.982Z,10.83
2018-05-11T11:43:45.304Z,11.80
2018-05-11T11:48:48.509Z,12.30
2018-05-11T11:53:51.720Z,11.23
2018-05-11T11:58:55.097Z,10.60
2018-05-11T12:03:58.433Z,9.87
2018-05-11T12:09:01.960Z,10.30
2018-05-11T12:14:04.292Z,10.33
2018-05-11T12:19:06.758Z,9.03
2018-05-11T12:24:09.216Z,8.90
2018-05-11T12:29:12.638Z,8.53
2018-05-11T12:39:25.661Z,8.07
2018-05-11T12:44:28.110Z,7.60
2018-05-11T12:49:31.322Z,8.27
2018-05-11T12:54:34.558Z,7.77
2018-05-11T12:59:36.989Z,7.33
2018-05-11T13:04:39.437Z,6.90
2018-05-11T13:09:41.878Z,6.30
2018-05-11T13:14:44.322Z,6.27
2018-05-11T13:19:46.776Z,5.90
2018-05-11T13:24:49.217Z,4.70
2018-05-11T13:29:52.828Z,4.60
2018-05-11T13:34:55.430Z,5.00
2018-05-11T13:39:57.861Z,3.80
2018-05-11T13:45:00.310Z,3.57
2018-05-11T13:50:02.797Z,3.20
2018-05-11T13:55:05.267Z,3.00
2018-05-11T14:00:07.708Z,2.67
2018-05-11T14:05:10.157Z,2.73
2018-05-11T14:10:21.859Z,4.43
2018-05-11T14:15:24.288Z,4.53
2018-05-11T14:20:26.739Z,4.80
2018-05-11T14:25:29.957Z,4.57
2018-05-11T14:30:33.190Z,5.70
2018-05-11T14:35:35.681Z,5.27
2018-05-11T14:40:38.219Z,5.27
2018-05-11T14:45:40.658Z,6.03
2018-05-11T14:50:43.881Z,5.30
2018-05-11T14:55:46.313Z,5.37
2018-05-11T15:00:48.943Z,5.30
2018-05-11T15:05:51.449Z,4.27
2018-05-11T15:10:54.653Z,4.70
2018-05-11T15:15:57.938Z,4.37
2018-05-11T15:21:00.399Z,5.67
2018-05-11T15:26:02.854Z,4.63
2018-05-11T15:31:06.097Z,4.90
2018-05-11T15:36:09.256Z,4.73
2018-05-11T15:41:11.707Z,5.47
2018-05-11T15:46:14.175Z,4.60
2018-05-11T15:51:16.673Z,4.67
2018-05-11T15:56:19.257Z,4.80
2018-05-11T16:01:21.707Z,4.60
2018-05-11T16:06:24.913Z,4.00
2018-05-11T16:11:27.359Z,4.30
2018-05-11T16:16:43.787Z,9.27
2018-05-11T16:21:46.233Z,3.93
2018-05-11T16:26:48.697Z,3.67
2018-05-11T16:31:51.143Z,4.57
2018-05-11T16:42:26.214Z,4.27
2018-05-11T16:47:28.677Z,5.40
2018-05-11T16:52:31.118Z,4.20
2018-05-11T16:57:33.574Z,4.07
2018-05-11T17:02:36.010Z,3.50
2018-05-11T17:07:38.462Z,3.97
2018-05-11T17:12:41.678Z,5.97
2018-05-11T17:17:45.668Z,6.40
2018-05-11T17:22:48.233Z,5.90
2018-05-11T17:27:50.577Z,6.53
2018-05-11T17:32:53.018Z,6.07
2018-05-11T17:37:55.471Z,5.80
2018-05-11T17:42:57.915Z,6.30
2018-05-11T17:48:00.353Z,7.10
2018-05-11T17:53:02.806Z,7.17
2018-05-11T17:58:05.258Z,6.83
2018-05-11T18:03:08.476Z,6.60
2018-05-11T18:08:11.781Z,6.50
2018-05-11T18:13:14.200Z,6.30
2018-05-11T18:18:16.658Z,5.67
2018-05-11T18:23:21.466Z,6.47
2018-05-11T18:28:24.073Z,6.13
2018-05-11T18:33:28.118Z,5.90
2018-05-11T18:38:32.068Z,5.70
2018-05-11T18:43:35.286Z,5.93
2018-05-11T18:48:37.733Z,5.93
2018-05-11T18:53:40.553Z,6.23
2018-05-11T18:58:42.657Z,5.90
2018-05-11T19:03:45.874Z,6.50
2018-05-11T19:08:48.330Z,5.90
2018-05-11T19:13:50.764Z,5.70
2018-05-11T19:18:53.252Z,5.57
2018-05-11T19:29:23.957Z,5.60
2018-05-11T19:34:26.386Z,6.40
2018-05-11T19:39:28.938Z,5.77
2018-05-11T19:44:31.704Z,5.47
2018-05-11T19:49:34.314Z,6.20
2018-05-11T19:54:38.411Z,5.53
2018-05-11T19:59:40.866Z,5.70
2018-05-11T20:04:43.342Z,6.20
2018-05-11T20:09:45.760Z,6.80
2018-05-11T20:14:48.204Z,5.87
2018-05-11T20:19:51.670Z,6.03
2018-05-11T20:30:01.893Z,6.53
2018-05-11T20:35:04.342Z,7.87
2018-05-11T20:40:07.573Z,7.37
2018-05-11T20:45:10.019Z,7.73
2018-05-11T20:50:30.726Z,7.40
2018-05-11T20:55:33.166Z,8.07
2018-05-11T21:00:56.422Z,8.40
2018-05-11T21:05:59.638Z,8.30
2018-05-11T21:11:02.852Z,8.50
2018-05-11T21:16:06.144Z,8.97
2018-05-11T21:21:08.633Z,8.93
2018-05-11T21:26:11.088Z,8.57
2018-05-11T21:31:13.530Z,8.33
2018-05-11T21:36:16.745Z,8.97
2018-05-11T21:41:19.955Z,8.37
2018-05-11T21:46:23.346Z,8.50
2018-05-11T21:51:25.778Z,7.90
2018-05-11T21:56:28.333Z,7.57
2018-05-11T22:01:30.765Z,8.03
2018-05-11T22:06:33.219Z,7.87
2018-05-11T22:11:35.662Z,6.97
2018-05-11T22:16:38.116Z,7.78
2018-05-11T22:21:41.330Z,7.33
2018-05-11T22:26:44.557Z,7.67
2018-05-11T22:31:47.006Z,7.43
2018-05-11T22:36:49.462Z,7.57
2018-05-11T22:41:51.937Z,6.90
2018-05-11T22:46:54.583Z,7.57
2018-05-11T22:51:57.017Z,7.30
2018-05-11T22:56:59.467Z,7.43
2018-05-11T23:02:02.458Z,7.67
2018-05-11T23:07:04.915Z,7.43
2018-05-11T23:12:08.161Z,7.50
2018-05-11T23:17:31.478Z,7.57
2018-05-11T23:22:35.458Z,7.37
2018-05-11T23:27:38.035Z,7.23
2018-05-11T23:32:56.698Z,7.77
2018-05-11T23:37:59.137Z,7.63
2018-05-11T23:43:01.618Z,7.43
2018-05-11T23:48:04.063Z,6.90
2018-05-11T23:53:07.392Z,7.03
2018-05-11T23:58:09.850Z,7.00
